KIRS/IRS METAR and TAF weather

Enter ICAO airport designator
Station Type Date Time Source
KIRS METAR 2021/01/16 03:15 UTC NOAA

KIRS 160315Z AUTO 00000KT 5SM BR CLR M01/M02 A2958 RMK AO2 T10151023


Station Type Date Time Source
KIRS Decoded METAR 2021/01/16 03:15 UTC NOAA

Sturgis, Kirsch Municipal Airport, MI, United States (KIRS) 41-48-46N 085-26-21W
Jan 15, 2021 - 10:15 PM EST / 2021.01.16 0315 UTC
Wind: Calm:0
Visibility: 5 mile(s):0
Sky conditions: clear
Weather: mist
Temperature: 29.3 F (-1.5 C)
Dew Point: 27.9 F (-2.3 C)
Relative Humidity: 94%
Pressure (altimeter): 29.58 in. Hg (1001 hPa)
ob: KIRS 160315Z AUTO 00000KT 5SM BR CLR M01/M02 A2958 RMK AO2 T10151023
cycle: 3

Station Type Date Time Source
KIRS TAF UTC NOAA

Error!

Example: see airport list